Time;durP1;ratioP1;P1;durP2;ratioP2;P2;SDS_P1;SDS_P2;PMS_P1;PMS_P2;Temp;Humidity;BMP_temperature;BMP_pressure;BME280_temperature;BME280_humidity;BME280_pressure;Samples;Min_cycle;Max_cycle;Signal;HPM_P1;HPM_P2
2023/09/09 00:01:17;;;;;;;3.40;2.30;;;19.80;48.20;;;;;;5015831;28;20038;-69
2023/09/09 00:03:43;;;;;;;4.82;2.28;;;19.70;48.30;;;;;;5015885;28;20026;-69
2023/09/09 00:06:12;;;;;;;3.10;2.00;;;19.70;48.40;;;;;;5015421;28;20034;-69
2023/09/09 00:08:38;;;;;;;4.22;2.22;;;19.70;48.50;;;;;;5015932;28;20069;-69
2023/09/09 00:11:04;;;;;;;4.63;2.40;;;19.60;48.50;;;;;;5014689;28;20029;-69
2023/09/09 00:13:30;;;;;;;4.55;2.47;;;19.60;48.60;;;;;;5015656;28;20076;-69
2023/09/09 00:15:56;;;;;;;2.40;2.20;;;19.60;48.70;;;;;;5014500;28;20037;-69
2023/09/09 00:18:22;;;;;;;3.28;2.30;;;19.60;48.80;;;;;;5015635;28;20116;-70
2023/09/09 00:20:47;;;;;;;3.90;2.60;;;19.50;48.80;;;;;;5015108;28;20374;-69
2023/09/09 00:23:13;;;;;;;3.47;2.30;;;19.50;48.90;;;;;;5022628;28;20037;-69
2023/09/09 00:25:40;;;;;;;3.53;2.55;;;19.50;48.90;;;;;;5014621;28;20125;-69
2023/09/09 00:28:08;;;;;;;3.55;2.60;;;19.50;48.90;;;;;;5015456;28;20040;-69
2023/09/09 00:30:34;;;;;;;5.10;2.63;;;19.50;49.00;;;;;;5015359;28;20022;-69
2023/09/09 00:33:00;;;;;;;3.58;2.53;;;19.50;49.10;;;;;;5024504;28;20109;-70
2023/09/09 00:35:26;;;;;;;3.90;2.33;;;19.50;49.20;;;;;;5030523;28;20058;-70
2023/09/09 00:37:52;;;;;;;3.85;2.33;;;19.50;49.30;;;;;;5015639;28;20073;-69
2023/09/09 00:40:18;;;;;;;3.45;2.35;;;19.40;49.20;;;;;;5015445;28;20376;-69
2023/09/09 00:42:43;;;;;;;3.15;2.17;;;19.50;49.40;;;;;;5015992;28;20407;-69
2023/09/09 00:45:10;;;;;;;3.53;2.40;;;19.40;49.30;;;;;;5014919;28;20076;-69
2023/09/09 00:47:37;;;;;;;6.50;2.50;;;19.40;49.40;;;;;;5021264;28;20487;-69
2023/09/09 00:50:05;;;;;;;2.83;2.20;;;19.40;49.50;;;;;;5033531;28;20036;-69
2023/09/09 00:52:31;;;;;;;3.55;2.30;;;19.40;49.60;;;;;;5030397;28;20464;-69
2023/09/09 00:54:57;;;;;;;4.03;2.50;;;19.30;49.60;;;;;;5014803;28;20050;-69
2023/09/09 00:57:23;;;;;;;3.90;2.22;;;19.30;49.70;;;;;;5014878;28;20038;-69
2023/09/09 00:59:49;;;;;;;4.90;2.30;;;19.20;49.80;;;;;;5018496;28;20021;-70
2023/09/09 01:02:14;;;;;;;3.28;2.40;;;19.20;49.90;;;;;;5034262;28;20056;-69
2023/09/09 01:04:40;;;;;;;3.28;2.30;;;19.30;50.10;;;;;;5031710;28;20108;-70
2023/09/09 01:07:07;;;;;;;2.25;2.05;;;19.30;50.10;;;;;;5033815;28;20026;-69
2023/09/09 01:09:33;;;;;;;2.60;2.00;;;19.40;50.10;;;;;;5034664;28;20025;-70
2023/09/09 01:12:00;;;;;;;4.00;2.22;;;19.40;50.10;;;;;;5034387;28;20523;-69
2023/09/09 01:14:26;;;;;;;2.63;2.08;;;19.50;50.10;;;;;;5034038;28;20017;-69
2023/09/09 01:16:53;;;;;;;2.90;2.25;;;19.50;50.10;;;;;;5032770;28;20033;-69
2023/09/09 01:19:21;;;;;;;2.70;2.10;;;19.50;50.10;;;;;;5034116;28;20096;-70
2023/09/09 01:21:47;;;;;;;3.53;2.08;;;19.60;50.20;;;;;;5033008;28;20029;-69
2023/09/09 01:24:16;;;;;;;2.58;2.08;;;19.60;50.20;;;;;;5022116;28;20057;-70
2023/09/09 01:26:43;;;;;;;2.97;2.22;;;19.60;50.20;;;;;;5014294;28;20048;-69
2023/09/09 01:29:09;;;;;;;3.58;2.28;;;19.60;50.20;;;;;;5030375;28;20029;-68
2023/09/09 01:31:35;;;;;;;3.50;2.30;;;19.60;50.30;;;;;;5034117;28;20029;-68
2023/09/09 01:34:01;;;;;;;2.65;2.17;;;19.60;50.30;;;;;;5031711;28;20101;-68
2023/09/09 01:36:26;;;;;;;3.85;2.20;;;19.60;50.30;;;;;;5016143;28;20480;-69
2023/09/09 01:38:52;;;;;;;2.63;2.10;;;19.60;50.40;;;;;;5014542;28;20038;-68
2023/09/09 01:41:18;;;;;;;2.88;2.00;;;19.70;50.40;;;;;;5014195;28;20033;-68
2023/09/09 01:43:43;;;;;;;4.28;2.10;;;19.70;50.40;;;;;;5020118;28;20034;-69
2023/09/09 01:46:09;;;;;;;3.63;2.10;;;19.70;50.30;;;;;;5022949;28;20029;-68
2023/09/09 01:48:35;;;;;;;1.90;1.80;;;19.70;50.30;;;;;;5014122;28;20460;-69
2023/09/09 01:51:01;;;;;;;2.90;2.10;;;19.70;50.30;;;;;;5014454;28;20030;-68
2023/09/09 01:53:26;;;;;;;2.28;2.00;;;19.70;50.30;;;;;;5026449;28;20056;-68
2023/09/09 01:55:52;;;;;;;3.08;2.08;;;19.70;50.30;;;;;;5032828;28;20030;-69
2023/09/09 01:58:18;;;;;;;3.40;2.38;;;19.70;50.40;;;;;;5032241;28;20365;-69
2023/09/09 02:00:43;;;;;;;2.65;1.83;;;19.70;50.40;;;;;;5033704;28;20029;-68
2023/09/09 02:03:09;;;;;;;3.85;2.28;;;19.70;50.50;;;;;;5032442;28;20025;-69
2023/09/09 02:05:35;;;;;;;2.78;2.38;;;19.70;50.50;;;;;;5033577;28;20061;-68
2023/09/09 02:08:00;;;;;;;3.67;2.42;;;19.60;50.60;;;;;;5030663;28;20460;-69
2023/09/09 02:10:26;;;;;;;2.63;2.10;;;19.50;50.60;;;;;;5033699;28;20033;-68
2023/09/09 02:12:52;;;;;;;2.75;2.20;;;19.40;50.80;;;;;;5033522;28;20435;-69
2023/09/09 02:15:17;;;;;;;3.00;2.20;;;19.40;50.90;;;;;;5033336;28;20095;-69
2023/09/09 02:17:45;;;;;;;5.45;2.10;;;19.40;51.10;;;;;;5022281;28;20429;-69
2023/09/09 02:20:11;;;;;;;2.53;2.10;;;19.40;51.10;;;;;;5013736;28;20026;-68
2023/09/09 02:22:37;;;;;;;3.28;2.15;;;19.50;51.20;;;;;;5027157;28;20103;-68
2023/09/09 02:25:03;;;;;;;2.83;2.15;;;19.50;51.10;;;;;;5030437;28;20422;-68
2023/09/09 02:27:29;;;;;;;3.38;2.10;;;19.50;51.00;;;;;;5028023;28;20108;-68
2023/09/09 02:29:55;;;;;;;3.42;2.25;;;19.50;51.00;;;;;;5033390;28;20524;-68
2023/09/09 02:32:20;;;;;;;2.45;2.05;;;19.50;51.00;;;;;;5032148;28;20029;-69
2023/09/09 02:34:46;;;;;;;3.28;2.40;;;19.50;51.00;;;;;;5033206;28;20108;-68
2023/09/09 02:37:17;;;;;;;3.75;2.40;;;19.60;51.10;;;;;;5022119;28;20526;-68
2023/09/09 02:39:50;;;;;;;5.70;2.20;;;19.60;51.00;;;;;;5013711;28;20037;-69
2023/09/09 02:42:21;;;;;;;3.25;2.30;;;19.60;51.00;;;;;;5012131;28;20033;-68
2023/09/09 02:44:50;;;;;;;2.45;2.05;;;19.60;51.00;;;;;;5015015;28;20022;-68
2023/09/09 02:47:17;;;;;;;4.68;2.28;;;19.60;51.00;;;;;;5017295;28;20040;-68
2023/09/09 02:49:45;;;;;;;2.42;2.00;;;19.50;51.00;;;;;;5017486;28;20030;-69
2023/09/09 02:52:11;;;;;;;2.75;2.15;;;19.50;51.10;;;;;;5015840;28;20054;-69
2023/09/09 02:54:39;;;;;;;2.78;2.10;;;19.50;51.20;;;;;;5017157;28;20026;-68
2023/09/09 02:57:05;;;;;;;2.80;2.22;;;19.40;51.20;;;;;;5017450;28;20038;-68
2023/09/09 02:59:33;;;;;;;2.92;2.17;;;19.40;51.30;;;;;;5017033;28;20033;-68
2023/09/09 03:01:59;;;;;;;3.33;2.17;;;19.40;51.40;;;;;;5021371;28;20476;-68
2023/09/09 03:04:25;;;;;;;5.53;2.10;;;19.30;51.50;;;;;;5037232;28;20036;-68
2023/09/09 03:06:50;;;;;;;3.40;2.30;;;19.40;51.60;;;;;;5035845;28;20041;-68
2023/09/09 03:09:16;;;;;;;4.63;2.40;;;19.40;51.60;;;;;;5036711;28;20041;-68
2023/09/09 03:11:42;;;;;;;4.00;2.20;;;19.40;51.60;;;;;;5036739;28;20065;-68
2023/09/09 03:14:08;;;;;;;3.90;2.05;;;19.40;51.60;;;;;;5036488;28;20026;-68
2023/09/09 03:16:35;;;;;;;3.33;2.40;;;19.40;51.60;;;;;;5036677;28;20034;-68
2023/09/09 03:19:00;;;;;;;2.35;2.00;;;19.30;51.60;;;;;;5036493;28;20032;-69
2023/09/09 03:21:26;;;;;;;3.33;2.45;;;19.40;51.70;;;;;;5035301;28;20030;-68
2023/09/09 03:23:51;;;;;;;4.47;2.30;;;19.40;51.70;;;;;;5036391;28;20029;-68
2023/09/09 03:26:19;;;;;;;4.13;2.42;;;19.30;51.70;;;;;;5019892;28;20403;-68
2023/09/09 03:28:48;;;;;;;2.65;2.10;;;19.30;52.40;;;;;;5019519;28;20394;-68
2023/09/09 03:31:14;;;;;;;3.97;2.30;;;19.30;51.80;;;;;;5036205;28;20032;-68
2023/09/09 03:33:40;;;;;;;3.22;2.10;;;19.40;51.90;;;;;;5035965;28;20034;-69
2023/09/09 03:36:07;;;;;;;3.00;2.28;;;19.40;51.90;;;;;;5034956;28;20057;-68
2023/09/09 03:38:33;;;;;;;2.78;2.10;;;19.40;51.90;;;;;;5039493;28;20021;-69
2023/09/09 03:40:59;;;;;;;2.67;2.05;;;19.40;51.80;;;;;;5045253;28;20029;-69
2023/09/09 03:43:24;;;;;;;4.28;2.35;;;19.30;51.90;;;;;;5045155;28;20036;-69
2023/09/09 03:45:54;;;;;;;2.88;2.30;;;19.30;51.90;;;;;;5044094;28;20041;-69
2023/09/09 03:48:20;;;;;;;3.38;2.33;;;19.30;52.10;;;;;;5041745;28;20026;-69
2023/09/09 03:50:46;;;;;;;3.30;2.50;;;19.30;52.20;;;;;;5044161;28;20036;-69
2023/09/09 03:53:11;;;;;;;3.80;2.58;;;19.20;52.10;;;;;;5043239;28;20032;-68
2023/09/09 03:55:37;;;;;;;5.53;2.58;;;19.10;52.20;;;;;;5045723;28;20029;-68
2023/09/09 03:58:03;;;;;;;4.25;2.60;;;19.10;52.30;;;;;;5042887;28;20044;-69
2023/09/09 04:00:28;;;;;;;7.55;2.45;;;18.90;52.40;;;;;;5044920;28;20061;-69
2023/09/09 04:02:54;;;;;;;3.15;2.30;;;18.80;52.60;;;;;;5044172;28;20029;-69
2023/09/09 04:05:20;;;;;;;3.25;2.47;;;18.70;52.80;;;;;;5045866;28;20028;-69
2023/09/09 04:07:45;;;;;;;4.95;2.60;;;18.70;52.90;;;;;;5045437;28;20033;-69
2023/09/09 04:10:14;;;;;;;3.45;2.40;;;18.60;53.10;;;;;;5035570;28;20585;-68
2023/09/09 04:12:40;;;;;;;2.90;2.30;;;18.50;53.10;;;;;;5034237;28;20462;-68
2023/09/09 04:15:06;;;;;;;3.15;2.22;;;18.50;53.30;;;;;;5036994;28;20046;-69
2023/09/09 04:17:32;;;;;;;4.03;2.50;;;18.40;53.40;;;;;;5030282;28;20112;-69
2023/09/09 04:19:58;;;;;;;4.25;2.40;;;18.40;53.60;;;;;;5036394;28;20492;-68
2023/09/09 04:22:25;;;;;;;4.00;2.80;;;18.40;53.80;;;;;;5035094;28;20025;-68
2023/09/09 04:24:53;;;;;;;3.45;2.67;;;18.30;53.90;;;;;;5035308;28;20033;-69
2023/09/09 04:27:19;;;;;;;4.18;2.45;;;18.20;54.10;;;;;;5035193;28;20029;-69
2023/09/09 04:29:45;;;;;;;4.13;2.53;;;18.20;54.30;;;;;;5034058;28;20026;-69
2023/09/09 04:32:12;;;;;;;3.83;2.40;;;18.20;54.40;;;;;;5051297;28;20148;-68
2023/09/09 04:34:38;;;;;;;3.15;2.20;;;18.20;54.40;;;;;;5054525;28;20033;-69
2023/09/09 04:37:04;;;;;;;2.63;2.20;;;18.20;54.50;;;;;;5055126;28;20040;-68
2023/09/09 04:39:29;;;;;;;2.40;2.17;;;18.20;54.60;;;;;;5030132;28;20029;-69
2023/09/09 04:41:55;;;;;;;2.58;2.05;;;18.20;54.70;;;;;;5015984;28;20022;-68
2023/09/09 04:44:20;;;;;;;3.42;2.30;;;18.20;54.80;;;;;;5015296;28;20030;-68
2023/09/09 04:46:46;;;;;;;3.03;2.03;;;18.20;54.90;;;;;;5017598;28;20038;-69
2023/09/09 04:49:12;;;;;;;2.70;2.08;;;18.30;54.90;;;;;;5029337;28;20048;-69
2023/09/09 04:51:37;;;;;;;3.25;2.10;;;18.30;54.80;;;;;;5016298;28;20033;-68
2023/09/09 04:54:03;;;;;;;2.90;2.28;;;18.40;54.80;;;;;;5015387;28;20048;-68
2023/09/09 04:56:29;;;;;;;2.78;2.22;;;18.40;54.80;;;;;;5013556;28;20026;-68
2023/09/09 04:58:55;;;;;;;2.75;2.08;;;18.50;54.80;;;;;;5013531;28;20026;-68
2023/09/09 05:01:20;;;;;;;2.60;2.05;;;18.60;55.40;;;;;;5014826;28;20032;-68
2023/09/09 05:03:46;;;;;;;2.55;2.00;;;18.70;54.70;;;;;;5014748;28;20452;-68
2023/09/09 05:06:12;;;;;;;3.13;2.20;;;18.70;54.70;;;;;;5020221;28;20049;-68
2023/09/09 05:08:38;;;;;;;2.88;2.20;;;18.80;54.60;;;;;;5033516;28;20052;-68
2023/09/09 05:11:03;;;;;;;3.97;1.80;;;18.80;54.60;;;;;;5034348;28;20026;-69
2023/09/09 05:13:29;;;;;;;2.22;2.03;;;18.80;54.60;;;;;;5032863;28;20033;-69
2023/09/09 05:15:55;;;;;;;2.72;2.03;;;18.90;54.60;;;;;;5032865;28;20021;-69
2023/09/09 05:18:20;;;;;;;3.42;2.13;;;18.90;54.60;;;;;;5044053;28;20013;-69
2023/09/09 05:20:46;;;;;;;2.65;2.00;;;19.00;54.60;;;;;;5039646;28;20036;-69
2023/09/09 05:23:12;;;;;;;2.30;1.90;;;19.00;54.60;;;;;;5041446;28;20037;-69
2023/09/09 05:25:37;;;;;;;2.40;1.95;;;19.10;54.60;;;;;;5043193;28;20528;-69
2023/09/09 05:28:03;;;;;;;2.33;1.95;;;19.10;54.50;;;;;;5040068;28;20110;-69
2023/09/09 05:30:29;;;;;;;3.05;2.20;;;19.10;54.50;;;;;;5032338;28;20036;-69
2023/09/09 05:32:54;;;;;;;2.92;2.20;;;19.10;54.40;;;;;;5021636;28;20075;-69
2023/09/09 05:35:20;;;;;;;3.15;2.08;;;19.10;54.40;;;;;;5021550;28;20054;-74
2023/09/09 05:37:47;;;;;;;2.95;2.00;;;19.10;54.40;;;;;;5018634;28;20037;-74
2023/09/09 05:40:13;;;;;;;4.63;2.10;;;19.10;54.40;;;;;;5033725;28;20045;-70
2023/09/09 05:42:39;;;;;;;4.75;2.20;;;19.10;54.50;;;;;;5032725;28;20027;-69
2023/09/09 05:45:06;;;;;;;2.58;1.80;;;19.10;54.50;;;;;;5020870;28;20108;-69
2023/09/09 05:47:31;;;;;;;3.13;2.17;;;19.10;54.60;;;;;;5026746;28;20032;-68
2023/09/09 05:49:57;;;;;;;3.97;2.10;;;19.10;54.50;;;;;;5020315;28;20025;-79
2023/09/09 05:52:23;;;;;;;3.38;2.22;;;19.10;54.60;;;;;;5016568;28;20029;-77
2023/09/09 05:54:50;;;;;;;2.38;2.03;;;19.20;54.60;;;;;;5022247;28;20056;-73
2023/09/09 05:57:15;;;;;;;2.45;1.77;;;19.20;54.60;;;;;;5014867;28;20045;-72
2023/09/09 05:59:41;;;;;;;3.03;1.95;;;19.20;54.60;;;;;;5014571;28;20105;-71
2023/09/09 06:02:07;;;;;;;3.55;2.00;;;19.20;54.90;;;;;;5029116;28;20026;-71
2023/09/09 06:04:32;;;;;;;2.75;1.80;;;19.30;54.90;;;;;;5018523;28;20036;-72
2023/09/09 06:06:58;;;;;;;2.47;1.90;;;19.40;54.90;;;;;;5032237;28;20388;-79
2023/09/09 06:09:24;;;;;;;3.17;2.00;;;19.40;54.90;;;;;;5031998;28;20053;-72
2023/09/09 06:11:50;;;;;;;3.63;2.00;;;19.40;54.80;;;;;;5016426;28;20120;-73
2023/09/09 06:14:16;;;;;;;3.42;2.08;;;19.40;54.90;;;;;;5023623;28;20104;-74
2023/09/09 06:16:42;;;;;;;3.42;2.10;;;19.50;55.00;;;;;;5020898;28;20048;-69
2023/09/09 06:19:08;;;;;;;2.55;1.75;;;19.50;55.00;;;;;;5033453;28;20040;-71
2023/09/09 06:21:33;;;;;;;2.63;1.95;;;19.60;55.10;;;;;;5037337;28;20025;-75
2023/09/09 06:23:59;;;;;;;2.00;1.70;;;19.70;55.00;;;;;;5022980;28;20045;-74
2023/09/09 06:26:30;;;;;;;13.07;9.50;;;19.70;55.00;;;;;;5018372;28;20484;-72
2023/09/09 06:28:56;;;;;;;7.80;6.75;;;19.70;55.20;;;;;;5027534;28;20026;-71
2023/09/09 06:31:21;;;;;;;3.67;1.90;;;19.80;55.20;;;;;;5033536;28;20086;-72
2023/09/09 06:33:47;;;;;;;3.67;1.95;;;19.90;55.20;;;;;;5041119;28;20116;-70
2023/09/09 06:36:13;;;;;;;3.33;2.00;;;20.10;55.20;;;;;;5038478;28;20045;-74
2023/09/09 06:38:38;;;;;;;3.97;1.85;;;20.20;55.00;;;;;;5018593;28;20057;-73
2023/09/09 06:41:04;;;;;;;2.42;1.67;;;20.30;54.90;;;;;;5028699;28;20061;-71
2023/09/09 06:43:30;;;;;;;2.15;1.70;;;20.40;54.60;;;;;;5043690;28;20036;-70
2023/09/09 06:45:57;;;;;;;2.70;1.70;;;20.40;54.40;;;;;;5046179;28;20057;-71
2023/09/09 06:48:22;;;;;;;3.38;1.88;;;20.50;55.00;;;;;;5045703;28;20545;-73
2023/09/09 06:50:49;;;;;;;2.08;1.83;;;20.40;54.30;;;;;;5043647;28;20033;-76
2023/09/09 06:53:15;;;;;;;2.63;1.70;;;20.40;54.20;;;;;;5039979;28;20139;-77
2023/09/09 06:55:43;;;;;;;1.67;1.30;;;20.40;54.20;;;;;;5044954;28;20060;-73
2023/09/09 06:58:09;;;;;;;2.33;1.63;;;20.30;54.20;;;;;;5043000;28;20101;-73
2023/09/09 07:00:35;;;;;;;2.35;1.60;;;20.30;54.10;;;;;;5047032;28;20029;-73
2023/09/09 07:03:01;;;;;;;2.58;1.40;;;20.30;54.20;;;;;;5045089;28;20021;-73
2023/09/09 07:05:27;;;;;;;1.67;1.33;;;20.30;54.10;;;;;;5044205;28;20033;-77
2023/09/09 07:07:52;;;;;;;2.00;1.30;;;20.30;54.20;;;;;;5045910;28;20497;-75
2023/09/09 07:10:18;;;;;;;1.90;1.60;;;20.30;54.00;;;;;;5040322;28;20017;-74
2023/09/09 07:12:44;;;;;;;1.70;1.30;;;20.30;54.00;;;;;;5046370;28;20101;-73
2023/09/09 07:15:10;;;;;;;11.32;8.55;;;20.20;53.90;;;;;;5046935;28;20025;-72
2023/09/09 07:17:36;;;;;;;7.18;1.73;;;20.30;54.00;;;;;;5045523;28;20083;-72
2023/09/09 07:20:02;;;;;;;1.35;1.15;;;20.30;54.10;;;;;;5046492;28;20025;-73
2023/09/09 07:22:27;;;;;;;2.17;1.50;;;20.40;54.10;;;;;;5044969;28;20025;-75
2023/09/09 07:24:53;;;;;;;1.92;1.20;;;20.40;53.90;;;;;;5044583;28;20025;-73
2023/09/09 07:27:19;;;;;;;1.95;1.40;;;20.50;53.80;;;;;;5044034;28;20471;-73
2023/09/09 07:29:45;;;;;;;1.30;1.20;;;20.50;53.70;;;;;;5044001;28;20017;-70
2023/09/09 07:32:12;;;;;;;2.55;1.58;;;20.50;53.60;;;;;;5039379;28;20487;-70
2023/09/09 07:34:37;;;;;;;2.85;1.30;;;20.50;53.50;;;;;;5042328;28;20028;-69
2023/09/09 07:37:03;;;;;;;1.92;1.33;;;20.60;53.50;;;;;;5045887;28;20030;-72
2023/09/09 07:39:29;;;;;;;1.63;1.52;;;20.60;53.50;;;;;;5043094;28;20025;-73
2023/09/09 07:41:54;;;;;;;2.45;1.50;;;20.60;53.40;;;;;;5042891;28;20351;-70
2023/09/09 07:44:20;;;;;;;1.30;1.20;;;20.60;53.40;;;;;;5048841;28;20022;-68
2023/09/09 07:46:46;;;;;;;2.83;1.42;;;20.70;53.50;;;;;;5044528;28;20550;-71
2023/09/09 07:49:11;;;;;;;3.63;1.23;;;20.60;53.20;;;;;;5046153;28;20024;-69
2023/09/09 07:51:38;;;;;;;2.05;1.35;;;20.60;53.20;;;;;;5042513;28;20028;-78
2023/09/09 07:54:03;;;;;;;1.35;1.17;;;20.60;53.20;;;;;;5045910;28;20025;-77
2023/09/09 07:56:29;;;;;;;1.20;1.10;;;20.70;53.20;;;;;;5035458;28;20055;-73
2023/09/09 07:58:55;;;;;;;1.10;1.00;;;20.70;53.20;;;;;;5040479;28;20021;-73
2023/09/09 08:01:20;;;;;;;1.70;1.10;;;20.70;53.10;;;;;;5041475;28;20025;-73
2023/09/09 08:03:46;;;;;;;1.30;1.10;;;20.70;53.00;;;;;;5041496;28;20513;-71
2023/09/09 08:06:11;;;;;;;1.83;1.35;;;20.70;52.80;;;;;;5041809;28;20091;-72
2023/09/09 08:08:37;;;;;;;11.98;9.25;;;20.70;52.80;;;;;;5042782;28;20025;-75
2023/09/09 08:11:03;;;;;;;1.30;1.20;;;20.70;52.80;;;;;;5043811;28;20021;-74
2023/09/09 08:13:29;;;;;;;4.00;1.55;;;20.70;52.70;;;;;;5043184;28;20037;-75
2023/09/09 08:15:56;;;;;;;1.30;1.20;;;20.70;52.60;;;;;;5042762;28;20029;-73
2023/09/09 08:18:22;;;;;;;1.90;1.27;;;20.70;52.60;;;;;;5040390;28;20092;-71
2023/09/09 08:20:51;;;;;;;1.38;1.15;;;20.70;52.50;;;;;;5040939;28;20392;-71
2023/09/09 08:23:17;;;;;;;1.98;1.38;;;20.80;52.40;;;;;;5041503;28;20498;-78
2023/09/09 08:25:43;;;;;;;1.85;1.20;;;20.80;52.30;;;;;;5034160;28;20552;-73
2023/09/09 08:28:09;;;;;;;1.33;1.20;;;20.80;52.20;;;;;;5041479;28;20020;-76
2023/09/09 08:30:35;;;;;;;1.52;1.20;;;20.80;52.00;;;;;;5044467;28;20017;-76
2023/09/09 08:33:01;;;;;;;1.13;0.85;;;20.80;52.00;;;;;;5046571;28;20025;-74
2023/09/09 08:35:30;;;;;;;1.38;1.10;;;20.80;51.80;;;;;;5045003;28;20049;-75
2023/09/09 08:37:55;;;;;;;1.10;1.00;;;20.90;51.80;;;;;;5044712;28;20036;-77
2023/09/09 08:40:21;;;;;;;1.98;0.90;;;20.90;52.30;;;;;;5038852;28;20025;-74
2023/09/09 08:43:05;;;;;;;1.85;1.00;;;20.90;51.60;;;;;;5044356;28;20052;-76
2023/09/09 08:45:34;;;;;;;1.40;1.30;;;21.00;51.70;;;;;;5033905;28;20033;-72
2023/09/09 08:48:06;;;;;;;1.92;1.05;;;21.10;51.60;;;;;;5039296;28;20041;-78
2023/09/09 08:50:35;;;;;;;1.02;0.90;;;21.10;51.30;;;;;;5044082;28;20021;-72
2023/09/09 08:53:04;;;;;;;3.33;0.90;;;21.20;51.20;;;;;;5039837;28;21607;-77
2023/09/09 08:55:30;;;;;;;1.15;0.90;;;21.20;51.10;;;;;;5044294;28;20017;-73
2023/09/09 08:57:55;;;;;;;1.40;1.27;;;21.20;51.00;;;;;;5044504;28;20039;-75
2023/09/09 09:00:21;;;;;;;2.03;1.00;;;21.20;50.90;;;;;;5043595;28;20031;-76
2023/09/09 09:02:49;;;;;;;2.17;0.95;;;21.20;50.80;;;;;;5043227;28;20068;-76
2023/09/09 09:05:16;;;;;;;1.23;0.93;;;21.20;50.60;;;;;;5044494;28;20044;-73
2023/09/09 09:07:41;;;;;;;1.10;0.95;;;21.20;50.40;;;;;;5042573;28;20092;-71
2023/09/09 09:10:08;;;;;;;0.80;0.80;;;21.20;50.40;;;;;;5044729;28;20112;-72
2023/09/09 09:12:36;;;;;;;0.80;0.80;;;21.20;50.30;;;;;;5046829;28;20032;-73
2023/09/09 09:15:03;;;;;;;0.63;0.63;;;21.30;50.30;;;;;;5043214;28;20030;-74
2023/09/09 09:17:30;;;;;;;3.22;0.80;;;21.30;50.10;;;;;;5034945;28;20056;-76
2023/09/09 09:19:56;;;;;;;0.90;0.90;;;21.40;50.10;;;;;;5045142;28;20029;-74
2023/09/09 09:22:23;;;;;;;2.28;1.10;;;21.40;50.10;;;;;;5041838;28;20066;-73
2023/09/09 09:24:48;;;;;;;1.15;0.73;;;21.40;49.90;;;;;;5036097;28;20080;-75
2023/09/09 09:27:15;;;;;;;2.47;0.90;;;21.40;49.80;;;;;;5042036;28;20422;-74
2023/09/09 09:29:42;;;;;;;0.98;0.82;;;21.50;49.60;;;;;;5040932;28;20074;-78
2023/09/09 09:32:12;;;;;;;9.35;4.28;;;21.50;49.50;;;;;;5042931;28;20029;-74
2023/09/09 09:34:38;;;;;;;5.88;4.82;;;21.50;49.50;;;;;;5040877;28;20034;-84
2023/09/09 09:37:11;;;;;;;2.25;1.38;;;21.60;49.60;;;;;;5038759;28;20162;-71
2023/09/09 09:39:38;;;;;;;1.55;1.10;;;21.60;49.50;;;;;;5040217;28;20025;-72
2023/09/09 09:42:04;;;;;;;2.50;1.02;;;21.70;49.50;;;;;;5043473;28;20024;-76
2023/09/09 09:44:30;;;;;;;1.25;0.90;;;21.70;49.30;;;;;;5043873;28;20491;-77
2023/09/09 09:47:03;;;;;;;1.23;0.90;;;21.70;49.10;;;;;;5041131;28;20041;-75
2023/09/09 09:49:34;;;;;;;1.02;0.93;;;21.80;49.10;;;;;;5043713;28;20533;-76
2023/09/09 09:52:00;;;;;;;1.23;0.75;;;21.80;49.00;;;;;;5036891;28;20022;-69
2023/09/09 09:54:25;;;;;;;2.05;1.73;;;21.80;48.70;;;;;;5021669;28;20471;-74
2023/09/09 09:56:52;;;;;;;0.90;0.88;;;21.80;48.70;;;;;;5040283;28;20025;-77
2023/09/09 09:59:21;;;;;;;1.00;0.90;;;21.80;48.60;;;;;;5039388;28;20116;-75
2023/09/09 10:01:48;;;;;;;3.60;1.65;;;21.80;48.60;;;;;;5030791;28;20415;-74
2023/09/09 10:04:17;;;;;;;1.42;1.13;;;21.90;48.70;;;;;;5027080;28;20402;-73
2023/09/09 10:06:47;;;;;;;1.40;1.20;;;21.90;48.30;;;;;;5050419;28;20064;-72
2023/09/09 10:09:39;;;;;;;3.78;1.92;;;21.80;48.30;;;;;;5053233;28;20104;-77
2023/09/09 10:12:14;;;;;;;3.45;1.45;;;21.80;48.50;;;;;;5052639;28;20090;-72
2023/09/09 10:14:41;;;;;;;5.38;1.70;;;21.80;48.60;;;;;;5053751;28;20486;-78
2023/09/09 10:17:08;;;;;;;3.00;1.65;;;21.90;48.40;;;;;;5053393;28;20028;-76
2023/09/09 10:19:37;;;;;;;2.33;1.70;;;22.00;48.30;;;;;;5053445;28;20053;-72
2023/09/09 10:22:06;;;;;;;2.33;1.70;;;22.10;48.40;;;;;;5053031;28;20407;-74
2023/09/09 10:24:34;;;;;;;2.47;1.60;;;22.20;48.30;;;;;;5053267;28;20025;-74
2023/09/09 10:27:04;;;;;;;2.15;1.40;;;22.20;48.30;;;;;;5052094;28;20495;-73
2023/09/09 10:29:31;;;;;;;3.70;1.65;;;22.30;48.10;;;;;;5052464;28;20024;-77
2023/09/09 10:32:05;;;;;;;2.80;1.50;;;22.40;47.90;;;;;;5053075;28;20036;-75
2023/09/09 10:34:34;;;;;;;2.43;1.37;;;22.50;48.00;;;;;;5053159;28;20432;-75
2023/09/09 10:37:00;;;;;;;2.67;1.50;;;22.50;47.80;;;;;;5051849;28;20270;-72
2023/09/09 10:39:27;;;;;;;1.77;1.15;;;22.60;47.80;;;;;;5051605;28;20035;-76
2023/09/09 10:41:57;;;;;;;3.97;1.20;;;22.60;47.60;;;;;;5053230;28;20455;-78
2023/09/09 10:44:23;;;;;;;2.58;1.27;;;22.60;47.50;;;;;;5053294;28;20029;-73
2023/09/09 10:46:54;;;;;;;2.33;1.15;;;22.60;47.50;;;;;;5053009;28;20033;-73
2023/09/09 10:49:25;;;;;;;2.80;1.23;;;22.70;47.50;;;;;;5053622;28;20029;-73
2023/09/09 10:51:51;;;;;;;1.25;1.15;;;22.70;47.50;;;;;;5051963;28;20080;-76
2023/09/09 10:54:22;;;;;;;1.70;1.10;;;22.70;47.30;;;;;;5053196;28;20033;-75
2023/09/09 10:56:53;;;;;;;0.90;0.90;;;22.70;47.20;;;;;;5051691;28;20033;-72
2023/09/09 10:59:27;;;;;;;1.42;1.02;;;22.80;47.00;;;;;;5053197;28;20037;-74
2023/09/09 11:02:18;;;;;;;2.58;1.10;;;22.80;46.90;;;;;;5052811;28;20040;-73
2023/09/09 11:04:56;;;;;;;1.38;0.75;;;22.80;46.70;;;;;;5052714;28;20032;-73
2023/09/09 11:07:21;;;;;;;1.33;1.15;;;22.80;46.80;;;;;;5056824;28;20029;-73
2023/09/09 11:09:53;;;;;;;1.15;0.95;;;22.90;46.70;;;;;;5056691;28;20021;-73
2023/09/09 11:12:26;;;;;;;1.00;0.82;;;22.90;46.50;;;;;;5056668;28;20082;-77
2023/09/09 11:15:08;;;;;;;1.20;1.03;;;22.90;46.30;;;;;;5056567;28;20071;-74
2023/09/09 11:17:40;;;;;;;1.17;0.70;;;22.90;46.30;;;;;;5056568;28;20378;-74
2023/09/09 11:20:19;;;;;;;1.48;0.90;;;22.90;46.40;;;;;;5054945;28;20487;-78
2023/09/09 11:22:46;;;;;;;0.90;0.80;;;23.00;46.40;;;;;;5054741;28;20025;-76
2023/09/09 11:25:14;;;;;;;2.55;0.75;;;23.00;46.40;;;;;;5054682;28;20025;-75
2023/09/09 11:27:40;;;;;;;0.70;0.70;;;23.00;46.30;;;;;;5055012;28;20029;-74
2023/09/09 11:30:06;;;;;;;4.45;0.80;;;23.00;46.20;;;;;;5056054;28;20070;-74
2023/09/09 11:32:32;;;;;;;1.75;0.82;;;23.10;46.20;;;;;;5054965;28;20059;-78
2023/09/09 11:34:58;;;;;;;0.85;0.85;;;23.10;46.10;;;;;;5056099;28;20483;-73
2023/09/09 11:37:25;;;;;;;1.25;1.10;;;23.10;46.10;;;;;;5056214;28;20029;-74
2023/09/09 11:39:57;;;;;;;2.63;1.17;;;23.10;46.00;;;;;;5055775;28;20021;-73
2023/09/09 11:42:23;;;;;;;1.33;1.13;;;23.10;45.80;;;;;;5056396;28;20120;-74
2023/09/09 11:44:49;;;;;;;0.80;0.80;;;23.10;45.70;;;;;;5056005;28;20056;-77
2023/09/09 11:47:16;;;;;;;3.05;0.90;;;23.10;45.70;;;;;;5054662;28;20029;-78
2023/09/09 11:49:48;;;;;;;0.88;0.85;;;23.10;45.70;;;;;;5056032;28;20072;-72
2023/09/09 11:52:14;;;;;;;1.05;0.85;;;23.10;45.70;;;;;;5055636;28;20075;-72
2023/09/09 11:54:42;;;;;;;1.65;0.80;;;23.10;45.70;;;;;;5055901;28;20387;-72
2023/09/09 11:57:09;;;;;;;1.15;0.70;;;23.20;45.60;;;;;;5055783;28;20017;-74
2023/09/09 11:59:46;;;;;;;0.82;0.82;;;23.20;45.50;;;;;;5055701;28;20406;-77
2023/09/09 12:02:25;;;;;;;3.10;1.08;;;23.20;45.40;;;;;;5054411;28;20025;-74
2023/09/09 12:04:59;;;;;;;0.95;0.70;;;23.30;45.20;;;;;;5055340;28;20524;-74
2023/09/09 12:07:26;;;;;;;;;;;23.30;45.20;;;;;;5056016;28;20037;-77
2023/09/09 12:09:52;;;;;;;1.00;0.63;;;23.30;44.80;;;;;;5055405;28;20026;-73
2023/09/09 12:12:18;;;;;;;0.80;0.70;;;23.30;45.10;;;;;;5054051;28;20429;-73
2023/09/09 12:14:45;;;;;;;0.80;0.80;;;23.30;44.70;;;;;;5055491;28;20078;-73
2023/09/09 12:17:11;;;;;;;0.65;0.65;;;23.30;44.60;;;;;;5054750;28;20422;-72
2023/09/09 12:19:36;;;;;;;1.08;0.95;;;23.30;44.50;;;;;;5055164;28;20021;-73
2023/09/09 12:22:02;;;;;;;0.80;0.70;;;23.30;44.50;;;;;;5055276;28;20486;-77
2023/09/09 12:24:29;;;;;;;0.68;0.68;;;23.30;44.60;;;;;;5055138;28;20106;-77
2023/09/09 12:26:55;;;;;;;0.70;0.70;;;23.30;44.40;;;;;;5055020;28;20033;-75
2023/09/09 12:29:21;;;;;;;0.93;0.70;;;23.40;44.40;;;;;;5055030;28;20060;-74
2023/09/09 12:31:54;;;;;;;0.60;0.60;;;23.40;44.30;;;;;;5054693;28;20110;-72
2023/09/09 12:34:21;;;;;;;1.13;0.70;;;23.50;44.30;;;;;;5055409;28;20097;-76
2023/09/09 12:36:48;;;;;;;0.60;0.60;;;23.50;44.10;;;;;;5055508;28;20505;-78
2023/09/09 12:39:25;;;;;;;1.52;0.65;;;23.60;44.10;;;;;;5053739;28;20031;-74
2023/09/09 12:42:05;;;;;;;0.60;0.60;;;23.70;43.90;;;;;;5054919;28;20021;-73
2023/09/09 12:44:35;;;;;;;0.98;0.80;;;23.70;44.30;;;;;;5054803;28;20353;-77
2023/09/09 12:47:04;;;;;;;0.60;0.60;;;23.80;43.80;;;;;;5054677;28;20124;-75